createdAt,value
2018-10-07T00:00:30.822Z,995.69
2018-10-07T00:01:30.815Z,995.67
2018-10-07T00:02:30.805Z,995.70
2018-10-07T00:03:30.797Z,995.76
2018-10-07T00:04:30.791Z,995.80
2018-10-07T00:05:30.784Z,995.81
2018-10-07T00:06:30.776Z,995.85
2018-10-07T00:07:30.770Z,995.83
2018-10-07T00:08:30.758Z,995.88
2018-10-07T00:09:30.753Z,995.87
2018-10-07T00:10:30.743Z,995.91
2018-10-07T00:11:30.790Z,995.91
2018-10-07T00:12:30.729Z,995.87
2018-10-07T00:13:30.721Z,995.89
2018-10-07T00:14:30.713Z,995.91
2018-10-07T00:15:30.704Z,995.90
2018-10-07T00:16:30.695Z,995.89
2018-10-07T00:17:30.689Z,995.91
2018-10-07T00:18:30.679Z,995.91
2018-10-07T00:19:30.672Z,995.91
2018-10-07T00:20:30.663Z,995.90
2018-10-07T00:21:30.707Z,995.89
2018-10-07T00:22:30.649Z,995.84
2018-10-07T00:23:30.641Z,995.80
2018-10-07T00:24:30.633Z,995.80
2018-10-07T00:25:30.626Z,995.76
2018-10-07T00:26:30.667Z,995.75
2018-10-07T00:27:30.609Z,995.71
2018-10-07T00:28:30.601Z,995.73
2018-10-07T00:29:30.596Z,995.79
2018-10-07T00:30:30.585Z,995.77
2018-10-07T00:31:30.578Z,995.77
2018-10-07T00:32:30.570Z,995.77
2018-10-07T00:33:30.565Z,995.76
2018-10-07T00:34:30.555Z,995.73
2018-10-07T00:35:30.548Z,995.71
2018-10-07T00:36:30.539Z,995.68
2018-10-07T00:37:30.530Z,995.63
2018-10-07T00:38:30.524Z,995.64
2018-10-07T00:39:30.516Z,995.62
2018-10-07T00:40:30.508Z,995.63
2018-10-07T00:41:30.502Z,995.65
2018-10-07T00:42:30.494Z,995.70
2018-10-07T00:43:30.484Z,995.78
2018-10-07T00:44:30.478Z,995.81
2018-10-07T00:45:30.470Z,995.85
2018-10-07T00:46:30.462Z,995.90
2018-10-07T00:47:30.454Z,995.89
2018-10-07T00:48:30.446Z,995.91
2018-10-07T00:49:30.438Z,995.95
2018-10-07T00:50:30.432Z,995.93
2018-10-07T00:51:30.427Z,995.97
2018-10-07T00:52:30.415Z,995.97
2018-10-07T00:53:30.407Z,996.01
2018-10-07T00:54:30.399Z,996.08
2018-10-07T00:55:30.390Z,996.05
2018-10-07T00:56:30.383Z,996.08
2018-10-07T00:57:30.376Z,996.10
2018-10-07T00:58:30.373Z,996.13
2018-10-07T00:59:30.360Z,996.12
2018-10-07T01:00:30.354Z,996.13
2018-10-07T01:01:30.345Z,996.10
2018-10-07T01:02:30.339Z,996.06
2018-10-07T01:03:30.330Z,996.05
2018-10-07T01:04:30.323Z,996.04
2018-10-07T01:05:30.317Z,996.01
2018-10-07T01:06:30.304Z,995.95
2018-10-07T01:07:30.299Z,995.95
2018-10-07T01:08:30.293Z,995.96
2018-10-07T01:09:30.284Z,995.97
2018-10-07T01:10:30.276Z,996.02
2018-10-07T01:11:30.268Z,996.02
2018-10-07T01:12:30.261Z,996.00
2018-10-07T01:13:30.252Z,995.96
2018-10-07T01:14:30.245Z,995.88
2018-10-07T01:15:30.237Z,995.82
2018-10-07T01:16:30.229Z,995.76
2018-10-07T01:17:30.222Z,995.69
2018-10-07T01:18:30.214Z,995.63
2018-10-07T01:19:30.206Z,995.61
2018-10-07T01:20:30.197Z,995.57
2018-10-07T01:21:30.195Z,995.58
2018-10-07T01:22:30.183Z,995.57
2018-10-07T01:23:30.175Z,995.59
2018-10-07T01:24:30.168Z,995.63
2018-10-07T01:25:30.161Z,995.69
2018-10-07T01:26:30.152Z,995.73
2018-10-07T01:27:30.144Z,995.70
2018-10-07T01:28:30.137Z,995.70
2018-10-07T01:29:30.129Z,995.70
2018-10-07T01:30:30.120Z,995.66
2018-10-07T01:31:30.113Z,995.67
2018-10-07T01:32:30.105Z,995.68
2018-10-07T01:33:30.099Z,995.72
2018-10-07T01:34:30.089Z,995.78
2018-10-07T01:35:30.081Z,995.82
2018-10-07T01:36:30.075Z,995.82
2018-10-07T01:37:30.066Z,995.83
2018-10-07T01:38:30.057Z,995.88
2018-10-07T01:39:30.054Z,995.89
2018-10-07T01:40:30.041Z,995.91
2018-10-07T01:41:30.034Z,995.85
2018-10-07T01:42:30.025Z,995.85
2018-10-07T01:43:30.067Z,995.80
2018-10-07T01:44:30.010Z,995.79
2018-10-07T01:45:30.002Z,995.80
2018-10-07T01:46:29.995Z,995.81
2018-10-07T01:47:29.985Z,995.83
2018-10-07T01:48:29.977Z,995.86
2018-10-07T01:49:29.970Z,995.86
2018-10-07T01:50:29.961Z,995.90
2018-10-07T01:51:29.955Z,995.89
2018-10-07T01:52:29.945Z,995.93
2018-10-07T01:53:29.987Z,995.95
2018-10-07T01:54:29.930Z,995.95
2018-10-07T01:55:29.921Z,996.00
2018-10-07T01:56:29.915Z,996.01
2018-10-07T01:57:29.907Z,995.98
2018-10-07T01:58:29.999Z,996.02
2018-10-07T01:59:29.957Z,996.02
2018-10-07T02:00:29.883Z,996.06
2018-10-07T02:01:29.877Z,996.06
2018-10-07T02:02:29.872Z,996.07
2018-10-07T02:03:29.859Z,996.06
2018-10-07T02:04:29.852Z,996.04
2018-10-07T02:05:29.844Z,996.04
2018-10-07T02:06:29.837Z,996.03
2018-10-07T02:07:29.828Z,996.03
2018-10-07T02:08:29.820Z,996.01
2018-10-07T02:09:29.813Z,996.00
2018-10-07T02:10:29.804Z,995.96
2018-10-07T02:11:29.797Z,995.97
2018-10-07T02:12:29.789Z,995.95
2018-10-07T02:13:29.783Z,995.95
2018-10-07T02:14:29.774Z,995.96
2018-10-07T02:15:29.767Z,995.91
2018-10-07T02:16:29.758Z,995.90
2018-10-07T02:17:29.751Z,995.92
2018-10-07T02:18:29.742Z,995.91
2018-10-07T02:19:29.735Z,995.92
2018-10-07T02:20:29.727Z,995.91
2018-10-07T02:21:29.721Z,995.96
2018-10-07T02:22:29.711Z,995.95
2018-10-07T02:23:29.754Z,995.98
2018-10-07T02:24:29.696Z,995.94
2018-10-07T02:25:29.891Z,995.98
2018-10-07T02:26:29.682Z,995.98
2018-10-07T02:27:29.673Z,995.93
2018-10-07T02:28:29.667Z,995.95
2018-10-07T02:29:29.661Z,995.94
2018-10-07T02:30:29.651Z,995.94
2018-10-07T02:31:29.642Z,995.95
2018-10-07T02:32:29.635Z,996.00
2018-10-07T02:33:29.882Z,995.96
2018-10-07T02:34:29.628Z,995.94
2018-10-07T02:35:29.614Z,996.01
2018-10-07T02:36:29.604Z,996.02
2018-10-07T02:37:29.597Z,996.10
2018-10-07T02:38:29.588Z,996.16
2018-10-07T02:39:29.581Z,996.20
2018-10-07T02:40:29.574Z,996.26
2018-10-07T02:41:29.569Z,996.27
2018-10-07T02:42:29.557Z,996.26
2018-10-07T02:43:29.605Z,996.29
2018-10-07T02:44:29.542Z,996.34
2018-10-07T02:45:29.533Z,996.33
2018-10-07T02:46:29.526Z,996.34
2018-10-07T02:47:29.520Z,996.43
2018-10-07T02:48:29.512Z,996.42
2018-10-07T02:49:29.505Z,996.51
2018-10-07T02:50:29.497Z,996.50
2018-10-07T02:51:29.489Z,996.52
2018-10-07T02:52:29.481Z,996.55
2018-10-07T02:53:29.608Z,996.56
2018-10-07T02:54:29.467Z,996.53
2018-10-07T02:55:29.459Z,996.53
2018-10-07T02:56:29.457Z,996.48
2018-10-07T02:57:29.444Z,996.49
2018-10-07T02:58:29.434Z,996.50
2018-10-07T02:59:29.428Z,996.52
2018-10-07T03:00:29.420Z,996.53
2018-10-07T03:01:29.412Z,996.53
2018-10-07T03:02:29.407Z,996.52
2018-10-07T03:03:29.398Z,996.52
2018-10-07T03:04:29.405Z,996.52
2018-10-07T03:05:29.384Z,996.48
2018-10-07T03:06:29.378Z,996.51
2018-10-07T03:07:29.369Z,996.60
2018-10-07T03:08:29.363Z,996.62
2018-10-07T03:09:29.356Z,996.61
2018-10-07T03:10:29.345Z,996.67
2018-10-07T03:11:29.337Z,996.74
2018-10-07T03:12:29.330Z,996.74
2018-10-07T03:13:29.324Z,996.79
2018-10-07T03:14:29.315Z,996.78
2018-10-07T03:15:29.312Z,996.77
2018-10-07T03:16:29.300Z,996.77
2018-10-07T03:17:29.292Z,996.77
2018-10-07T03:18:29.284Z,996.76
2018-10-07T03:19:29.280Z,996.75
2018-10-07T03:20:29.271Z,996.78
2018-10-07T03:21:29.263Z,996.78
2018-10-07T03:22:29.254Z,996.77
2018-10-07T03:23:29.247Z,996.82
2018-10-07T03:24:29.240Z,996.76
2018-10-07T03:25:29.234Z,996.82
2018-10-07T03:26:29.224Z,996.81
2018-10-07T03:27:29.216Z,996.83
2018-10-07T03:28:29.260Z,996.86
2018-10-07T03:29:29.289Z,996.87
2018-10-07T03:30:29.194Z,996.86
2018-10-07T03:31:29.389Z,996.90
2018-10-07T03:32:29.182Z,996.90
2018-10-07T03:33:29.171Z,996.95
2018-10-07T03:34:29.164Z,996.95
2018-10-07T03:35:29.158Z,996.98
2018-10-07T03:36:29.149Z,997.07
2018-10-07T03:37:29.142Z,997.05
2018-10-07T03:38:29.135Z,997.09
2018-10-07T03:39:29.126Z,997.11
2018-10-07T03:40:29.129Z,997.11
2018-10-07T03:41:29.112Z,997.13
2018-10-07T03:42:29.105Z,997.14
2018-10-07T03:43:29.096Z,997.19
2018-10-07T03:44:29.089Z,997.22
2018-10-07T03:45:29.081Z,997.24
2018-10-07T03:46:29.074Z,997.28
2018-10-07T03:47:29.067Z,997.34
2018-10-07T03:48:29.058Z,997.34
2018-10-07T03:49:29.050Z,997.38
2018-10-07T03:50:29.043Z,997.41
2018-10-07T03:51:29.036Z,997.40
2018-10-07T03:52:29.030Z,997.40
2018-10-07T03:53:29.024Z,997.38
2018-10-07T03:54:29.013Z,997.36
2018-10-07T03:55:29.005Z,997.38
2018-10-07T03:56:28.998Z,997.36
2018-10-07T03:57:28.991Z,997.39
2018-10-07T03:58:28.982Z,997.40
2018-10-07T03:59:28.979Z,997.38
2018-10-07T04:00:28.968Z,997.42
2018-10-07T04:01:28.961Z,997.42
2018-10-07T04:02:28.951Z,997.43
2018-10-07T04:03:28.945Z,997.45
2018-10-07T04:04:28.937Z,997.50
2018-10-07T04:05:28.931Z,997.47
2018-10-07T04:06:28.930Z,997.50
2018-10-07T04:07:28.915Z,997.52
2018-10-07T04:08:28.908Z,997.56
2018-10-07T04:09:28.901Z,997.50
2018-10-07T04:10:28.890Z,997.52
2018-10-07T04:11:28.885Z,997.52
2018-10-07T04:12:28.878Z,997.54
2018-10-07T04:13:28.877Z,997.59
2018-10-07T04:14:28.862Z,997.61
2018-10-07T04:15:28.854Z,997.67
2018-10-07T04:16:28.846Z,997.69
2018-10-07T04:17:28.840Z,997.76
2018-10-07T04:18:28.832Z,997.77
2018-10-07T04:19:28.824Z,997.80
2018-10-07T04:20:28.817Z,997.82
2018-10-07T04:21:28.808Z,997.87
2018-10-07T04:22:28.801Z,997.86
2018-10-07T04:23:28.794Z,997.87
2018-10-07T04:24:28.786Z,997.94
2018-10-07T04:25:28.782Z,997.89
2018-10-07T04:26:28.770Z,997.90
2018-10-07T04:27:28.762Z,997.96
2018-10-07T04:28:28.756Z,998.02
2018-10-07T04:29:28.748Z,998.01
2018-10-07T04:30:28.743Z,998.10
2018-10-07T04:31:28.730Z,998.12
2018-10-07T04:32:28.724Z,998.17
2018-10-07T04:33:28.717Z,998.22
2018-10-07T04:34:28.708Z,998.24
2018-10-07T04:35:28.702Z,998.24
2018-10-07T04:36:28.692Z,998.25
2018-10-07T04:37:28.685Z,998.27
2018-10-07T04:38:28.677Z,998.26
2018-10-07T04:39:28.671Z,998.24
2018-10-07T04:40:28.663Z,998.21
2018-10-07T04:41:28.656Z,998.24
2018-10-07T04:42:28.696Z,998.24
2018-10-07T04:43:28.638Z,998.25
2018-10-07T04:44:28.635Z,998.25
2018-10-07T04:45:28.623Z,998.32
2018-10-07T04:46:28.664Z,998.27
2018-10-07T04:47:28.606Z,998.31
2018-10-07T04:48:28.598Z,998.34
2018-10-07T04:49:28.589Z,998.35
2018-10-07T04:50:28.582Z,998.38
2018-10-07T04:51:28.574Z,998.41
2018-10-07T04:52:28.565Z,998.46
2018-10-07T04:53:28.558Z,998.48
2018-10-07T04:54:28.552Z,998.43
2018-10-07T04:55:28.543Z,998.45
2018-10-07T04:56:28.533Z,998.53
2018-10-07T04:57:28.525Z,998.51
2018-10-07T04:58:28.515Z,998.59
2018-10-07T04:59:28.508Z,998.62
2018-10-07T05:00:28.503Z,998.65
2018-10-07T05:01:28.492Z,998.70
2018-10-07T05:02:28.482Z,998.70
2018-10-07T05:03:28.476Z,998.69
2018-10-07T05:04:28.467Z,998.72
2018-10-07T05:05:28.459Z,998.72
2018-10-07T05:06:28.452Z,998.70
2018-10-07T05:07:28.442Z,998.72
2018-10-07T05:08:28.434Z,998.79
2018-10-07T05:09:28.427Z,998.77
2018-10-07T05:10:28.417Z,998.79
2018-10-07T05:11:28.409Z,998.86
2018-10-07T05:12:28.497Z,998.84
2018-10-07T05:13:28.391Z,998.88
2018-10-07T05:14:28.383Z,998.95
2018-10-07T05:15:28.375Z,998.96
2018-10-07T05:16:28.366Z,998.98
2018-10-07T05:17:28.360Z,999.04
2018-10-07T05:18:28.353Z,999.04
2018-10-07T05:19:28.346Z,999.13
2018-10-07T05:20:28.333Z,999.12
2018-10-07T05:21:28.324Z,999.12
2018-10-07T05:22:28.315Z,999.15
2018-10-07T05:23:28.310Z,999.15
2018-10-07T05:24:28.298Z,999.13
2018-10-07T05:25:28.289Z,999.16
2018-10-07T05:26:28.281Z,999.11
2018-10-07T05:27:28.273Z,999.13
2018-10-07T05:28:28.268Z,999.17
2018-10-07T05:29:28.256Z,999.12
2018-10-07T05:30:28.248Z,999.11
2018-10-07T05:31:28.241Z,999.16
2018-10-07T05:32:28.230Z,999.11
2018-10-07T05:33:28.293Z,999.10
2018-10-07T05:34:28.214Z,999.16
2018-10-07T05:35:28.208Z,999.14
2018-10-07T05:36:28.195Z,999.14
2018-10-07T05:37:28.187Z,999.20
2018-10-07T05:38:28.177Z,999.21
2018-10-07T05:39:28.169Z,999.23
2018-10-07T05:40:28.160Z,999.23
2018-10-07T05:41:28.152Z,999.26
2018-10-07T05:42:28.143Z,999.27
2018-10-07T05:43:28.138Z,999.27
2018-10-07T05:44:28.163Z,999.34
2018-10-07T05:45:28.117Z,999.33
2018-10-07T05:46:28.110Z,999.29
2018-10-07T05:47:28.100Z,999.32
2018-10-07T05:48:28.090Z,999.30
2018-10-07T05:49:28.087Z,999.30
2018-10-07T05:50:28.071Z,999.32
2018-10-07T05:51:28.064Z,999.36
2018-10-07T05:52:28.056Z,999.36
2018-10-07T05:53:28.048Z,999.40
2018-10-07T05:54:28.038Z,999.45
2018-10-07T05:55:28.040Z,999.42
2018-10-07T05:56:28.024Z,999.46
2018-10-07T05:57:28.013Z,999.51
2018-10-07T05:58:28.003Z,999.52
2018-10-07T05:59:27.995Z,999.58
2018-10-07T06:00:27.986Z,999.65
2018-10-07T06:01:27.987Z,999.67
2018-10-07T06:02:27.969Z,999.73
2018-10-07T06:03:27.960Z,999.78
2018-10-07T06:04:27.951Z,999.84
2018-10-07T06:05:27.943Z,999.85
2018-10-07T06:06:27.932Z,999.93
2018-10-07T06:07:27.928Z,999.94
2018-10-07T06:08:27.916Z,999.99
2018-10-07T06:09:27.914Z,999.98
2018-10-07T06:10:27.898Z,1000.01
2018-10-07T06:11:27.890Z,1000.03
2018-10-07T06:12:27.881Z,1000.06
2018-10-07T06:13:27.873Z,1000.05
2018-10-07T06:14:27.863Z,1000.07
2018-10-07T06:15:27.856Z,1000.13
2018-10-07T06:16:27.846Z,1000.12
2018-10-07T06:17:27.838Z,1000.10
2018-10-07T06:18:27.828Z,1000.11
2018-10-07T06:19:27.820Z,1000.13
2018-10-07T06:20:27.813Z,1000.12
2018-10-07T06:21:28.066Z,1000.21
2018-10-07T06:22:27.794Z,1000.23
2018-10-07T06:23:27.784Z,1000.22
2018-10-07T06:24:27.778Z,1000.29
2018-10-07T06:25:27.771Z,1000.28
2018-10-07T06:26:27.762Z,1000.33
2018-10-07T06:27:27.750Z,1000.33
2018-10-07T06:28:27.740Z,1000.30
2018-10-07T06:29:27.734Z,1000.32
2018-10-07T06:30:27.724Z,1000.37
2018-10-07T06:31:27.716Z,1000.37
2018-10-07T06:32:27.712Z,1000.44
2018-10-07T06:33:27.700Z,1000.43
2018-10-07T06:34:27.688Z,1000.46
2018-10-07T06:35:27.680Z,1000.49
2018-10-07T06:36:27.671Z,1000.52
2018-10-07T06:37:27.663Z,1000.55
2018-10-07T06:38:27.677Z,1000.54
2018-10-07T06:39:27.645Z,1000.60
2018-10-07T06:40:27.636Z,1000.55
2018-10-07T06:41:27.629Z,1000.59
2018-10-07T06:42:27.619Z,1000.63
2018-10-07T06:43:27.610Z,1000.65
2018-10-07T06:44:27.602Z,1000.64
2018-10-07T06:45:27.689Z,1000.65
2018-10-07T06:46:27.584Z,1000.68
2018-10-07T06:47:27.578Z,1000.66
2018-10-07T06:48:27.570Z,1000.70
2018-10-07T06:49:27.558Z,1000.74
2018-10-07T06:50:27.549Z,1000.73
2018-10-07T06:51:27.541Z,1000.79
2018-10-07T06:52:27.532Z,1000.80
2018-10-07T06:53:27.574Z,1000.83
2018-10-07T06:54:27.514Z,1000.86
2018-10-07T06:55:27.507Z,1000.87
2018-10-07T06:56:27.497Z,1000.91
2018-10-07T06:57:27.487Z,1000.92
2018-10-07T06:58:27.481Z,1000.95
2018-10-07T06:59:27.506Z,1000.96
2018-10-07T07:00:27.464Z,1001.03
2018-10-07T07:01:27.456Z,1001.05
2018-10-07T07:02:27.444Z,1001.05
2018-10-07T07:03:27.435Z,1001.10
2018-10-07T07:04:27.428Z,1001.16
2018-10-07T07:05:27.626Z,1001.20
2018-10-07T07:06:27.490Z,1001.17
2018-10-07T07:07:27.401Z,1001.23
2018-10-07T07:08:27.393Z,1001.23
2018-10-07T07:09:27.384Z,1001.24
2018-10-07T07:10:27.379Z,1001.23
2018-10-07T07:11:27.366Z,1001.34
2018-10-07T07:12:27.357Z,1001.36
2018-10-07T07:13:27.350Z,1001.37
2018-10-07T07:14:27.340Z,1001.41
2018-10-07T07:15:27.333Z,1001.45
2018-10-07T07:16:27.323Z,1001.44
2018-10-07T07:17:27.322Z,1001.52
2018-10-07T07:18:27.313Z,1001.56
2018-10-07T07:19:27.300Z,1001.58
2018-10-07T07:20:27.288Z,1001.61
2018-10-07T07:21:27.281Z,1001.62
2018-10-07T07:22:27.270Z,1001.63
2018-10-07T07:23:27.262Z,1001.69
2018-10-07T07:24:27.254Z,1001.71
2018-10-07T07:25:27.244Z,1001.70
2018-10-07T07:26:27.234Z,1001.75
2018-10-07T07:27:27.226Z,1001.80
2018-10-07T07:28:27.221Z,1001.78
2018-10-07T07:29:27.211Z,1001.79
2018-10-07T07:30:27.198Z,1001.81
2018-10-07T07:31:27.281Z,1001.80
2018-10-07T07:32:27.185Z,1001.83
2018-10-07T07:33:27.177Z,1001.85
2018-10-07T07:34:27.164Z,1001.87
2018-10-07T07:35:27.155Z,1001.86
2018-10-07T07:36:27.147Z,1001.90
2018-10-07T07:37:27.139Z,1001.88
2018-10-07T07:38:27.128Z,1001.90
2018-10-07T07:39:27.119Z,1001.95
2018-10-07T07:40:27.110Z,1001.95
2018-10-07T07:41:27.105Z,1001.99
2018-10-07T07:42:27.186Z,1002.03
2018-10-07T07:43:27.084Z,1002.02
2018-10-07T07:44:27.075Z,1002.05
2018-10-07T07:45:27.068Z,1002.05
2018-10-07T07:46:27.058Z,1002.03
2018-10-07T07:47:27.048Z,1002.10
2018-10-07T07:48:27.040Z,1002.12
2018-10-07T07:49:27.036Z,1002.12
2018-10-07T07:50:27.022Z,1002.15
2018-10-07T07:51:27.017Z,1002.16
2018-10-07T07:52:27.003Z,1002.20
2018-10-07T07:53:26.995Z,1002.25
2018-10-07T07:54:26.986Z,1002.22
2018-10-07T07:55:26.980Z,1002.26
2018-10-07T07:56:26.968Z,1002.27
2018-10-07T07:57:26.960Z,1002.30
2018-10-07T07:58:26.951Z,1002.34
2018-10-07T07:59:27.143Z,1002.35
2018-10-07T08:00:26.932Z,1002.35
2018-10-07T08:01:26.927Z,1002.42
2018-10-07T08:02:26.915Z,1002.46
2018-10-07T08:03:26.907Z,1002.47
2018-10-07T08:04:26.896Z,1002.46
2018-10-07T08:05:26.890Z,1002.44
2018-10-07T08:06:26.880Z,1002.46
2018-10-07T08:07:26.870Z,1002.41
2018-10-07T08:08:26.861Z,1002.47
2018-10-07T08:09:26.857Z,1002.47
2018-10-07T08:10:26.843Z,1002.42
2018-10-07T08:11:26.837Z,1002.43
2018-10-07T08:12:26.828Z,1002.40
2018-10-07T08:13:26.820Z,1002.42
2018-10-07T08:14:26.814Z,1002.39
2018-10-07T08:15:26.800Z,1002.39
2018-10-07T08:16:26.792Z,1002.40
2018-10-07T08:17:26.847Z,1002.39
2018-10-07T08:18:26.775Z,1002.41
2018-10-07T08:19:26.764Z,1002.36
2018-10-07T08:20:26.758Z,1002.35
2018-10-07T08:21:26.747Z,1002.40
2018-10-07T08:22:26.740Z,1002.38
2018-10-07T08:23:26.769Z,1002.29
2018-10-07T08:24:26.723Z,1002.29
2018-10-07T08:25:26.718Z,1002.32
2018-10-07T08:26:26.701Z,1002.24
2018-10-07T08:27:26.693Z,1002.26
2018-10-07T08:28:26.684Z,1002.25
2018-10-07T08:29:26.752Z,1002.23
2018-10-07T08:30:26.667Z,1002.22
2018-10-07T08:31:26.657Z,1002.24
2018-10-07T08:32:26.649Z,1002.21
2018-10-07T08:33:26.648Z,1002.19
2018-10-07T08:34:26.633Z,1002.24
2018-10-07T08:35:26.672Z,1002.21
2018-10-07T08:36:26.616Z,1002.33
2018-10-07T08:37:26.605Z,1002.32
2018-10-07T08:38:26.597Z,1002.28
2018-10-07T08:39:26.593Z,1002.31
2018-10-07T08:40:26.579Z,1002.31
2018-10-07T08:41:26.573Z,1002.37
2018-10-07T08:42:26.565Z,1002.38
2018-10-07T08:43:26.556Z,1002.37
2018-10-07T08:44:26.548Z,1002.41
2018-10-07T08:45:26.538Z,1002.37
2018-10-07T08:46:26.527Z,1002.38
2018-10-07T08:47:26.518Z,1002.36
2018-10-07T08:48:26.514Z,1002.40
2018-10-07T08:49:26.503Z,1002.39
2018-10-07T08:51:26.485Z,1002.46
2018-10-07T08:52:26.477Z,1002.53
2018-10-07T08:53:26.469Z,1002.54
2018-10-07T08:54:26.461Z,1002.53
2018-10-07T08:55:27.252Z,1002.55
2018-10-07T08:56:26.497Z,1002.58
2018-10-07T08:57:26.439Z,1002.60
2018-10-07T08:58:26.430Z,1002.58
2018-10-07T08:59:26.624Z,1002.66
2018-10-07T09:00:26.413Z,1002.61
2018-10-07T09:01:26.409Z,1002.67
2018-10-07T09:02:26.398Z,1002.69
2018-10-07T09:03:26.392Z,1002.74
2018-10-07T09:04:26.385Z,1002.80
2018-10-07T09:05:26.380Z,1002.86
2018-10-07T09:06:26.375Z,1002.85
2018-10-07T09:07:26.363Z,1002.88
2018-10-07T09:08:26.359Z,1002.88
2018-10-07T09:09:26.354Z,1002.86
2018-10-07T09:10:26.343Z,1002.90
2018-10-07T09:11:26.337Z,1002.89
2018-10-07T09:13:26.325Z,1002.88
2018-10-07T09:14:26.319Z,1002.86
2018-10-07T09:15:26.310Z,1002.89
2018-10-07T09:16:26.306Z,1002.90
2018-10-07T09:17:26.300Z,1002.88
2018-10-07T09:18:26.292Z,1002.89
2018-10-07T09:19:26.494Z,1002.88
2018-10-07T09:20:26.280Z,1002.85
2018-10-07T09:21:26.274Z,1002.83
2018-10-07T09:22:26.270Z,1002.83
2018-10-07T09:23:26.264Z,1002.88
2018-10-07T09:24:26.255Z,1002.89
2018-10-07T09:25:26.254Z,1002.90
2018-10-07T09:26:26.246Z,1002.90
2018-10-07T09:27:26.323Z,1002.87
2018-10-07T09:28:26.234Z,1002.90
2018-10-07T09:29:26.229Z,1002.87
2018-10-07T09:30:26.224Z,1002.80
2018-10-07T09:31:26.216Z,1002.83
2018-10-07T09:32:26.309Z,1002.84
2018-10-07T09:33:26.204Z,1002.80
2018-10-07T09:34:26.199Z,1002.78
2018-10-07T09:35:26.195Z,1002.85
2018-10-07T09:36:26.237Z,1002.89
2018-10-07T09:37:26.182Z,1002.89
2018-10-07T09:38:26.176Z,1002.87
2018-10-07T09:39:26.196Z,1002.93
2018-10-07T09:40:26.166Z,1002.96
2018-10-07T09:41:26.164Z,1002.94
2018-10-07T09:42:26.156Z,1002.95
2018-10-07T09:43:26.152Z,1003.02
2018-10-07T09:44:26.150Z,1003.06
2018-10-07T09:45:26.142Z,1003.08
2018-10-07T09:46:26.139Z,1003.06
2018-10-07T09:47:26.135Z,1003.10
2018-10-07T09:48:26.128Z,1003.11
2018-10-07T09:49:26.129Z,1003.09
2018-10-07T09:50:26.123Z,1003.15
2018-10-07T09:51:26.116Z,1003.17
2018-10-07T09:52:26.130Z,1003.16
2018-10-07T09:53:26.110Z,1003.23
2018-10-07T09:54:26.102Z,1003.27
2018-10-07T09:55:26.099Z,1003.32
2018-10-07T09:56:26.093Z,1003.31
2018-10-07T09:57:26.088Z,1003.28
2018-10-07T09:58:26.084Z,1003.30
2018-10-07T09:59:26.077Z,1003.29
2018-10-07T10:00:26.074Z,1003.32
2018-10-07T10:01:26.165Z,1003.32
2018-10-07T10:02:26.064Z,1003.34
2018-10-07T10:03:26.055Z,1003.34
2018-10-07T10:04:26.056Z,1003.32
2018-10-07T10:05:26.048Z,1003.34
2018-10-07T10:06:26.042Z,1003.32
2018-10-07T10:07:26.034Z,1003.31
2018-10-07T10:08:26.033Z,1003.33
2018-10-07T10:09:26.023Z,1003.35
2018-10-07T10:10:26.015Z,1003.35
2018-10-07T10:11:26.178Z,1003.38
2018-10-07T10:12:26.005Z,1003.30
2018-10-07T10:13:26.005Z,1003.28
2018-10-07T10:14:25.992Z,1003.31
2018-10-07T10:15:25.987Z,1003.24
2018-10-07T10:16:25.986Z,1003.21
2018-10-07T10:17:26.046Z,1003.18
2018-10-07T10:18:25.973Z,1003.16
2018-10-07T10:19:25.993Z,1003.16
2018-10-07T10:20:25.963Z,1003.08
2018-10-07T10:21:25.960Z,1003.14
2018-10-07T10:22:25.951Z,1003.14
2018-10-07T10:23:25.948Z,1003.15
2018-10-07T10:24:25.945Z,1003.18
2018-10-07T10:25:25.945Z,1003.18
2018-10-07T10:26:25.938Z,1003.21
2018-10-07T10:27:25.938Z,1003.20
2018-10-07T10:28:25.935Z,1003.22
2018-10-07T10:29:25.933Z,1003.18
2018-10-07T10:30:25.934Z,1003.22
2018-10-07T10:31:25.927Z,1003.20
2018-10-07T10:32:25.926Z,1003.27
2018-10-07T10:33:25.921Z,1003.24
2018-10-07T10:34:25.917Z,1003.26
2018-10-07T10:35:25.917Z,1003.24
2018-10-07T10:36:25.914Z,1003.27
2018-10-07T10:37:25.907Z,1003.33
2018-10-07T10:38:25.903Z,1003.31
2018-10-07T10:39:25.918Z,1003.32
2018-10-07T10:40:26.101Z,1003.31
2018-10-07T10:41:25.894Z,1003.33
2018-10-07T10:42:25.892Z,1003.36
2018-10-07T10:43:25.885Z,1003.39
2018-10-07T10:44:25.883Z,1003.41
2018-10-07T10:45:25.878Z,1003.39
2018-10-07T10:46:25.873Z,1003.41
2018-10-07T10:47:26.074Z,1003.42
2018-10-07T10:48:25.870Z,1003.41
2018-10-07T10:49:25.866Z,1003.45
2018-10-07T10:50:25.858Z,1003.45
2018-10-07T10:51:25.857Z,1003.46
2018-10-07T10:52:25.850Z,1003.45
2018-10-07T10:53:25.845Z,1003.45
2018-10-07T10:54:25.840Z,1003.47
2018-10-07T10:55:25.837Z,1003.52
2018-10-07T10:56:25.837Z,1003.48
2018-10-07T10:57:25.828Z,1003.51
2018-10-07T10:58:25.823Z,1003.54
2018-10-07T10:59:25.819Z,1003.53
2018-10-07T11:00:25.813Z,1003.55
2018-10-07T11:01:25.810Z,1003.55
2018-10-07T11:02:25.808Z,1003.58
2018-10-07T11:03:25.800Z,1003.56
2018-10-07T11:04:25.967Z,1003.61
2018-10-07T11:05:25.789Z,1003.61
2018-10-07T11:06:25.784Z,1003.65
2018-10-07T11:07:25.782Z,1003.64
2018-10-07T11:08:25.775Z,1003.65
2018-10-07T11:09:25.770Z,1003.69
2018-10-07T11:10:25.765Z,1003.67
2018-10-07T11:11:25.762Z,1003.64
2018-10-07T11:12:25.957Z,1003.72
2018-10-07T11:13:25.749Z,1003.71
2018-10-07T11:14:25.743Z,1003.71
2018-10-07T11:15:25.754Z,1003.69
2018-10-07T11:16:25.734Z,1003.72
2018-10-07T11:17:25.731Z,1003.71
2018-10-07T11:18:25.725Z,1003.70
2018-10-07T11:19:25.756Z,1003.71
2018-10-07T11:20:25.713Z,1003.72
2018-10-07T11:21:25.709Z,1003.79
2018-10-07T11:22:25.706Z,1003.80
2018-10-07T11:23:25.749Z,1003.80
2018-10-07T11:24:25.693Z,1003.79
2018-10-07T11:25:25.690Z,1003.80
2018-10-07T11:26:25.886Z,1003.83
2018-10-07T11:27:25.680Z,1003.85
2018-10-07T11:28:25.675Z,1003.89
2018-10-07T11:29:25.670Z,1003.85
2018-10-07T11:30:25.665Z,1003.89
2018-10-07T11:31:25.661Z,1003.89
2018-10-07T11:32:25.659Z,1003.85
2018-10-07T11:33:25.660Z,1003.86
2018-10-07T11:34:25.647Z,1003.84
2018-10-07T11:35:25.641Z,1003.84
2018-10-07T11:36:25.644Z,1003.83
2018-10-07T11:37:25.643Z,1003.86
2018-10-07T11:38:25.628Z,1003.84
2018-10-07T11:39:25.622Z,1003.85
2018-10-07T11:40:25.621Z,1003.88
2018-10-07T11:41:25.617Z,1003.86
2018-10-07T11:42:25.617Z,1003.90
2018-10-07T11:43:25.606Z,1003.93
2018-10-07T11:44:25.602Z,1003.94
2018-10-07T11:45:25.601Z,1003.93
2018-10-07T11:46:25.593Z,1003.88
2018-10-07T11:47:25.590Z,1003.92
2018-10-07T11:48:25.586Z,1003.86
2018-10-07T11:49:25.785Z,1003.88
2018-10-07T11:50:25.581Z,1003.88
2018-10-07T11:51:25.574Z,1003.90
2018-10-07T11:52:25.571Z,1003.85
2018-10-07T11:53:25.615Z,1003.85
2018-10-07T11:54:25.563Z,1003.89
2018-10-07T11:55:25.565Z,1003.83
2018-10-07T11:56:25.560Z,1003.86
2018-10-07T11:57:25.554Z,1003.86
2018-10-07T11:58:25.555Z,1003.84
2018-10-07T11:59:25.548Z,1003.91
2018-10-07T12:00:25.550Z,1003.84
2018-10-07T12:01:25.542Z,1003.84
2018-10-07T12:02:25.538Z,1003.87
2018-10-07T12:03:25.737Z,1003.87
2018-10-07T12:04:25.532Z,1003.88
2018-10-07T12:05:25.530Z,1003.88
2018-10-07T12:06:25.529Z,1003.87
2018-10-07T12:07:25.524Z,1003.83
2018-10-07T12:08:25.521Z,1003.82
2018-10-07T12:09:25.522Z,1003.88
2018-10-07T12:10:25.516Z,1003.87
2018-10-07T12:11:25.514Z,1003.81
2018-10-07T12:12:25.514Z,1003.85
2018-10-07T12:13:25.509Z,1003.89
2018-10-07T12:14:25.506Z,1003.85
2018-10-07T12:15:25.709Z,1003.79
2018-10-07T12:16:25.519Z,1003.83
2018-10-07T12:17:25.500Z,1003.85
2018-10-07T12:18:25.497Z,1003.85
2018-10-07T12:19:25.507Z,1003.80